Time;durP1;ratioP1;P1;durP2;ratioP2;P2;SDS_P1;SDS_P2;PMS_P1;PMS_P2;Temp;Humidity;BMP_temperature;BMP_pressure;BME280_temperature;BME280_humidity;BME280_pressure;Samples;Min_cycle;Max_cycle;Signal;HPM_P1;HPM_P2
2020/12/02 00:00:14;;;;;;;10.50;8.02;;;6.90;99.90;;;;;;5073533;28;20029;-69
2020/12/02 00:03:01;;;;;;;11.88;8.68;;;6.90;99.90;;;;;;5073581;28;20103;-68
2020/12/02 00:05:29;;;;;;;10.70;8.82;;;6.90;99.90;;;;;;5072547;28;20021;-68
2020/12/02 00:08:07;;;;;;;11.75;9.02;;;6.90;99.90;;;;;;5073353;28;20032;-69
2020/12/02 00:10:33;;;;;;;10.43;8.70;;;6.80;99.90;;;;;;5073275;28;20036;-68
2020/12/02 00:12:59;;;;;;;10.32;8.45;;;6.80;99.90;;;;;;5072527;28;20094;-68
2020/12/02 00:15:24;;;;;;;12.70;9.60;;;6.80;99.90;;;;;;5073486;28;20029;-70
2020/12/02 00:17:57;;;;;;;11.25;8.75;;;6.80;99.90;;;;;;5073042;28;20028;-68
2020/12/02 00:20:24;;;;;;;10.30;9.18;;;6.80;99.90;;;;;;5073147;28;20033;-68
2020/12/02 00:22:50;;;;;;;13.25;8.90;;;6.80;99.90;;;;;;5073876;28;20125;-69
2020/12/02 00:25:16;;;;;;;10.13;8.95;;;6.80;99.90;;;;;;5073989;28;20460;-69
2020/12/02 00:27:41;;;;;;;12.23;8.65;;;6.80;99.90;;;;;;5072904;28;20360;-68
2020/12/02 00:30:12;;;;;;;15.60;8.00;;;6.70;99.90;;;;;;5072859;28;20021;-69
2020/12/02 00:32:43;;;;;;;10.65;8.27;;;6.60;99.90;;;;;;5072090;28;20033;-67
2020/12/02 00:35:12;;;;;;;;;;;6.70;99.90;;;;;;5073686;28;20140;-67
2020/12/02 00:37:38;;;;;;;13.40;8.18;;;6.70;99.90;;;;;;5072658;28;19982;-68
2020/12/02 00:40:04;;;;;;;9.00;8.10;;;6.70;99.90;;;;;;5071631;28;20453;-67
2020/12/02 00:42:30;;;;;;;11.30;8.35;;;6.70;99.90;;;;;;5072449;28;20025;-68
2020/12/02 00:44:55;;;;;;;11.63;8.90;;;6.70;99.90;;;;;;5072733;28;20082;-69
2020/12/02 00:47:23;;;;;;;12.23;8.38;;;6.70;99.90;;;;;;5072015;28;20069;-68
2020/12/02 00:49:50;;;;;;;9.85;8.07;;;6.70;99.90;;;;;;5072413;28;20047;-68
2020/12/02 00:52:17;;;;;;;10.95;8.73;;;6.70;99.90;;;;;;5072554;28;20028;-68
2020/12/02 00:54:43;;;;;;;11.85;9.20;;;6.70;99.90;;;;;;5071689;28;20048;-68
2020/12/02 00:57:10;;;;;;;13.52;9.55;;;6.70;99.90;;;;;;5072132;28;20102;-68
2020/12/02 00:59:39;;;;;;;12.43;8.43;;;6.70;99.90;;;;;;5072232;28;20027;-68
2020/12/02 01:02:25;;;;;;;11.20;8.57;;;6.60;99.90;;;;;;5071500;28;20025;-68
2020/12/02 01:04:52;;;;;;;10.48;8.50;;;6.60;99.90;;;;;;5070914;28;20480;-68
2020/12/02 01:07:18;;;;;;;12.27;8.77;;;6.60;99.90;;;;;;5072097;28;20024;-68
2020/12/02 01:09:43;;;;;;;14.48;9.02;;;6.60;99.90;;;;;;5071099;28;20025;-68
2020/12/02 01:12:16;;;;;;;14.50;9.15;;;6.60;99.90;;;;;;5071830;28;20506;-68
2020/12/02 01:14:43;;;;;;;12.10;8.95;;;6.60;99.90;;;;;;5071251;28;20086;-68
2020/12/02 01:17:11;;;;;;;10.00;9.00;;;6.60;99.90;;;;;;5071071;28;20124;-68
2020/12/02 01:19:38;;;;;;;12.75;8.65;;;6.60;99.90;;;;;;5071661;28;20074;-68
2020/12/02 01:22:13;;;;;;;19.13;9.85;;;6.60;99.90;;;;;;5071285;28;20105;-67
2020/12/02 01:24:59;;;;;;;12.25;9.55;;;6.60;99.90;;;;;;5071562;28;20131;-69
2020/12/02 01:27:31;;;;;;;13.48;9.40;;;6.60;99.90;;;;;;5072172;28;20029;-69
2020/12/02 01:29:58;;;;;;;15.13;9.35;;;6.60;99.90;;;;;;5071184;28;20021;-69
2020/12/02 01:32:24;;;;;;;12.55;9.15;;;6.60;99.90;;;;;;5071786;28;20045;-69
2020/12/02 01:34:52;;;;;;;16.42;10.60;;;6.60;99.90;;;;;;5071152;28;20578;-71
2020/12/02 01:37:22;;;;;;;14.77;9.43;;;6.60;99.90;;;;;;5071230;28;20046;-69
2020/12/02 01:39:57;;;;;;;14.95;10.13;;;6.60;99.90;;;;;;5071452;28;20048;-68
2020/12/02 01:42:23;;;;;;;13.60;9.73;;;6.60;99.90;;;;;;5072701;28;20142;-68
2020/12/02 01:44:49;;;;;;;16.15;10.40;;;6.60;99.90;;;;;;5070603;28;20048;-68
2020/12/02 01:47:23;;;;;;;11.02;9.55;;;6.60;99.90;;;;;;5071418;28;20023;-68
2020/12/02 01:50:07;;;;;;;19.42;10.60;;;6.60;99.90;;;;;;5070456;28;20028;-68
2020/12/02 01:53:04;;;;;;;17.17;10.10;;;6.60;99.90;;;;;;5070614;28;20236;-67
2020/12/02 01:55:54;;;;;;;15.82;9.43;;;6.60;99.90;;;;;;5070737;28;20104;-70
2020/12/02 01:58:54;;;;;;;15.45;10.02;;;6.60;99.90;;;;;;5070641;28;20031;-69
2020/12/02 02:01:56;;;;;;;14.43;9.50;;;6.60;99.90;;;;;;5050511;28;20071;-69
2020/12/02 02:04:33;;;;;;;13.35;9.50;;;6.60;99.90;;;;;;5054617;28;20572;-68
2020/12/02 02:07:04;;;;;;;18.55;10.82;;;6.60;99.90;;;;;;5072008;28;20020;-68
2020/12/02 02:09:31;;;;;;;14.60;9.90;;;6.60;99.90;;;;;;5071935;28;20021;-69
2020/12/02 02:12:30;;;;;;;17.80;11.38;;;6.60;99.90;;;;;;5070149;28;20246;-69
2020/12/02 02:15:20;;;;;;;18.30;11.88;;;6.60;99.90;;;;;;5071455;28;20109;-67
2020/12/02 02:17:46;;;;;;;19.10;11.10;;;6.60;99.90;;;;;;5070911;28;20502;-69
2020/12/02 02:20:13;;;;;;;18.67;10.80;;;6.60;99.90;;;;;;5070421;28;20048;-69
2020/12/02 02:22:39;;;;;;;14.48;10.73;;;6.70;99.90;;;;;;5070811;28;20070;-69
2020/12/02 02:25:09;;;;;;;15.90;10.27;;;6.60;99.90;;;;;;5070337;28;20024;-69
2020/12/02 02:27:35;;;;;;;16.73;10.82;;;6.60;99.90;;;;;;5070955;28;20028;-69
2020/12/02 02:30:02;;;;;;;12.95;9.45;;;6.60;99.90;;;;;;5071095;28;20091;-68
2020/12/02 02:32:29;;;;;;;14.43;9.77;;;6.60;99.90;;;;;;5069907;28;20032;-69
2020/12/02 02:34:56;;;;;;;15.30;9.63;;;6.60;99.90;;;;;;5070740;28;20016;-67
2020/12/02 02:37:27;;;;;;;16.98;10.82;;;6.60;99.90;;;;;;5070533;28;20078;-69
2020/12/02 02:39:54;;;;;;;17.52;10.75;;;6.60;99.90;;;;;;5070120;28;20066;-68
2020/12/02 02:42:32;;;;;;;15.95;10.18;;;6.60;99.90;;;;;;5070712;28;20133;-69
2020/12/02 02:45:00;;;;;;;14.80;10.02;;;6.60;99.90;;;;;;5070758;28;20025;-69
2020/12/02 02:47:25;;;;;;;13.93;10.13;;;6.60;99.90;;;;;;5069883;28;20108;-69
2020/12/02 02:49:51;;;;;;;15.90;10.63;;;6.60;99.90;;;;;;5070663;28;20052;-69
2020/12/02 02:52:17;;;;;;;14.80;10.10;;;6.60;99.90;;;;;;5070588;28;20036;-69
2020/12/02 02:54:43;;;;;;;15.65;10.07;;;6.60;99.90;;;;;;5070086;28;20437;-69
2020/12/02 02:57:09;;;;;;;13.65;10.30;;;6.60;99.90;;;;;;5070537;28;20111;-69
2020/12/02 02:59:35;;;;;;;14.02;10.23;;;6.60;99.90;;;;;;5070497;28;20115;-69
2020/12/02 03:02:00;;;;;;;13.90;10.13;;;6.60;99.90;;;;;;5069759;28;20021;-70
2020/12/02 03:04:26;;;;;;;14.32;10.43;;;6.60;99.90;;;;;;5072428;28;20028;-68
2020/12/02 03:06:51;;;;;;;16.25;10.55;;;6.60;99.90;;;;;;5074329;28;20024;-69
2020/12/02 03:09:17;;;;;;;17.42;10.43;;;6.60;99.90;;;;;;5073546;28;20020;-69
2020/12/02 03:11:42;;;;;;;14.55;10.15;;;6.60;99.90;;;;;;5074408;28;20044;-69
2020/12/02 03:14:10;;;;;;;17.75;10.55;;;6.60;99.90;;;;;;5074233;28;20081;-69
2020/12/02 03:16:52;;;;;;;15.95;10.40;;;6.50;99.90;;;;;;5073976;28;20143;-69
2020/12/02 03:19:32;;;;;;;14.73;10.63;;;6.50;99.90;;;;;;5072779;28;20130;-69
2020/12/02 03:22:05;;;;;;;20.45;11.27;;;6.60;99.90;;;;;;5077584;28;20050;-69
2020/12/02 03:24:30;;;;;;;19.08;10.52;;;6.60;99.90;;;;;;5088851;28;20026;-69
2020/12/02 03:26:56;;;;;;;15.98;10.52;;;6.50;99.90;;;;;;5080318;28;20024;-69
2020/12/02 03:29:22;;;;;;;17.83;11.63;;;6.50;99.90;;;;;;5093011;28;20048;-69
2020/12/02 03:31:48;;;;;;;13.55;10.32;;;6.50;99.90;;;;;;5094100;28;20120;-68
2020/12/02 03:34:17;;;;;;;13.77;9.70;;;6.50;99.90;;;;;;5075687;28;20017;-69
2020/12/02 03:36:43;;;;;;;14.68;11.00;;;6.50;99.90;;;;;;5083564;28;20028;-69
2020/12/02 03:39:11;;;;;;;15.02;9.88;;;6.50;99.90;;;;;;5094114;28;20024;-69
2020/12/02 03:41:38;;;;;;;23.65;11.25;;;6.50;99.90;;;;;;5093883;28;20020;-69
2020/12/02 03:44:04;;;;;;;15.52;10.20;;;6.50;99.90;;;;;;5093100;28;20020;-68
2020/12/02 03:46:30;;;;;;;15.63;10.68;;;6.50;99.90;;;;;;5093938;28;20035;-68
2020/12/02 03:48:56;;;;;;;19.73;10.77;;;6.50;99.90;;;;;;5093912;28;20028;-69
2020/12/02 03:51:22;;;;;;;13.50;9.80;;;6.50;99.90;;;;;;5088573;28;20059;-69
2020/12/02 03:53:47;;;;;;;17.85;11.00;;;6.50;99.90;;;;;;5083770;28;20470;-69
2020/12/02 03:56:14;;;;;;;18.73;10.55;;;6.50;99.90;;;;;;5093574;28;20051;-69
2020/12/02 03:58:40;;;;;;;16.08;10.95;;;6.50;99.90;;;;;;5093209;28;20434;-69
2020/12/02 04:01:06;;;;;;;15.32;10.75;;;6.50;99.90;;;;;;5093903;28;20024;-70
2020/12/02 04:03:32;;;;;;;18.13;10.73;;;6.50;99.90;;;;;;5092674;28;20027;-69
2020/12/02 04:05:57;;;;;;;14.88;10.20;;;6.50;99.90;;;;;;5093594;28;20048;-68
2020/12/02 04:08:23;;;;;;;16.45;10.63;;;6.50;99.90;;;;;;5093049;28;20329;-69
2020/12/02 04:10:49;;;;;;;19.38;11.43;;;6.50;99.90;;;;;;5093010;28;20456;-69
2020/12/02 04:13:14;;;;;;;17.65;11.35;;;6.50;99.90;;;;;;5093039;28;20055;-69
2020/12/02 04:15:40;;;;;;;15.32;10.82;;;6.50;99.90;;;;;;5092923;28;20024;-69
2020/12/02 04:18:05;;;;;;;18.88;11.40;;;6.50;99.90;;;;;;5092560;28;20031;-70
2020/12/02 04:20:31;;;;;;;14.43;9.73;;;6.50;99.90;;;;;;5093048;28;20031;-69
2020/12/02 04:22:56;;;;;;;18.17;10.50;;;6.50;99.90;;;;;;5093433;28;20067;-69
2020/12/02 04:25:26;;;;;;;19.13;11.55;;;6.50;99.90;;;;;;5088796;28;20067;-69
2020/12/02 04:27:52;;;;;;;20.95;11.93;;;6.50;99.90;;;;;;5083148;28;20360;-68
2020/12/02 04:30:18;;;;;;;17.23;10.85;;;6.50;99.90;;;;;;5092841;28;20024;-68
2020/12/02 04:32:45;;;;;;;16.08;11.27;;;6.50;99.90;;;;;;5092573;28;20032;-68
2020/12/02 04:35:11;;;;;;;20.65;11.65;;;6.50;99.90;;;;;;5092993;28;20057;-68
2020/12/02 04:37:37;;;;;;;19.83;12.13;;;6.40;99.90;;;;;;5092627;28;20112;-68
2020/12/02 04:40:12;;;;;;;17.45;11.77;;;6.50;99.90;;;;;;5092251;28;20464;-69
2020/12/02 04:42:43;;;;;;;23.65;11.55;;;6.50;99.90;;;;;;5093050;28;20024;-68
2020/12/02 04:45:13;;;;;;;14.68;10.73;;;6.50;99.90;;;;;;5093836;28;20460;-67
2020/12/02 04:47:41;;;;;;;17.98;10.52;;;6.50;99.90;;;;;;5092228;28;20368;-68
2020/12/02 04:50:21;;;;;;;22.63;11.75;;;6.50;99.90;;;;;;5093152;28;20020;-68
2020/12/02 04:53:18;;;;;;;15.77;10.45;;;6.50;99.90;;;;;;5090412;28;20035;-68
2020/12/02 04:55:48;;;;;;;17.23;11.23;;;6.50;99.90;;;;;;5079617;28;20411;-68
2020/12/02 04:58:19;;;;;;;19.02;11.38;;;6.50;99.90;;;;;;5092221;28;20044;-68
2020/12/02 05:00:45;;;;;;;19.27;11.30;;;6.40;99.90;;;;;;5091589;28;20028;-68
2020/12/02 05:03:14;;;;;;;19.40;11.23;;;6.50;99.90;;;;;;5092645;28;20024;-68
2020/12/02 05:05:40;;;;;;;17.08;11.60;;;6.40;99.90;;;;;;5092691;28;20023;-68
2020/12/02 05:08:23;;;;;;;17.83;11.40;;;6.40;99.90;;;;;;5091777;28;20016;-68
2020/12/02 05:10:51;;;;;;;18.65;11.85;;;6.40;99.90;;;;;;5092417;28;20108;-68
2020/12/02 05:13:17;;;;;;;20.13;10.65;;;6.40;99.90;;;;;;5091780;28;20044;-69
2020/12/02 05:15:42;;;;;;;16.38;11.60;;;6.40;99.90;;;;;;5091851;28;20122;-68
2020/12/02 05:18:22;;;;;;;16.10;11.10;;;6.40;99.90;;;;;;5092606;28;20023;-69
2020/12/02 05:21:04;;;;;;;19.17;11.93;;;6.40;99.90;;;;;;5091401;28;20028;-69
2020/12/02 05:23:30;;;;;;;20.58;11.18;;;6.40;99.90;;;;;;5091692;28;20020;-68
2020/12/02 05:25:56;;;;;;;21.33;11.90;;;6.40;99.90;;;;;;5084084;28;20067;-68
2020/12/02 05:28:31;;;;;;;18.75;11.13;;;6.40;99.90;;;;;;5084744;28;20443;-68
2020/12/02 05:31:22;;;;;;;21.95;12.68;;;6.40;99.90;;;;;;5065899;28;20051;-68
2020/12/02 05:33:48;;;;;;;18.88;12.95;;;6.40;99.90;;;;;;5091928;28;20059;-68
2020/12/02 05:36:24;;;;;;;21.17;12.00;;;6.40;99.90;;;;;;5090987;28;20021;-68
2020/12/02 05:38:59;;;;;;;20.40;13.07;;;6.40;99.90;;;;;;5092076;28;20027;-68
2020/12/02 05:41:26;;;;;;;23.45;12.77;;;6.40;99.90;;;;;;5091773;28;20016;-68
2020/12/02 05:44:05;;;;;;;22.75;13.27;;;6.40;99.90;;;;;;5091134;28;20024;-68
2020/12/02 05:46:33;;;;;;;18.08;12.18;;;6.40;99.90;;;;;;5091664;28;20103;-68
2020/12/02 05:49:06;;;;;;;25.45;14.18;;;6.40;99.90;;;;;;5091045;28;20028;-67
2020/12/02 05:51:33;;;;;;;21.50;12.82;;;6.40;99.90;;;;;;5091623;28;20110;-68
2020/12/02 05:54:05;;;;;;;19.60;12.35;;;6.40;99.90;;;;;;5091531;28;20417;-68
2020/12/02 05:56:31;;;;;;;21.00;12.48;;;6.30;99.90;;;;;;5090637;28;20030;-68
2020/12/02 05:58:56;;;;;;;22.63;11.80;;;6.40;99.90;;;;;;5091498;28;20023;-68
2020/12/02 06:01:22;;;;;;;20.42;12.40;;;6.30;99.90;;;;;;5090954;28;20448;-68
2020/12/02 06:03:53;;;;;;;24.55;11.65;;;6.40;99.90;;;;;;5091051;28;20077;-68
2020/12/02 06:06:19;;;;;;;22.08;12.73;;;6.40;99.90;;;;;;5091368;28;20400;-68
2020/12/02 06:08:49;;;;;;;20.58;12.05;;;6.40;99.90;;;;;;5091479;28;20028;-69
2020/12/02 06:11:17;;;;;;;18.00;11.90;;;6.40;99.90;;;;;;5090204;28;20043;-69
2020/12/02 06:13:43;;;;;;;22.13;12.55;;;6.40;99.90;;;;;;5082796;28;20032;-69
2020/12/02 06:16:15;;;;;;;22.02;13.48;;;6.40;99.90;;;;;;5086548;28;20024;-69
2020/12/02 06:18:41;;;;;;;22.70;13.18;;;6.40;99.90;;;;;;5090506;28;20031;-69
2020/12/02 06:21:18;;;;;;;25.10;13.05;;;6.40;99.90;;;;;;5091257;28;20020;-69
2020/12/02 06:23:50;;;;;;;19.80;12.43;;;6.40;99.90;;;;;;5091885;28;20115;-69
2020/12/02 06:26:42;;;;;;;28.20;14.15;;;6.40;99.90;;;;;;5079412;28;20071;-69
2020/12/02 06:29:28;;;;;;;24.65;14.55;;;6.40;99.90;;;;;;5077342;28;20046;-69
2020/12/02 06:32:00;;;;;;;25.42;14.38;;;6.40;99.90;;;;;;5088975;28;20040;-69
2020/12/02 06:34:29;;;;;;;23.63;13.35;;;6.50;99.90;;;;;;5070332;28;20063;-69
2020/12/02 06:37:11;;;;;;;27.65;15.02;;;6.50;99.90;;;;;;5070668;28;20472;-69
2020/12/02 06:39:44;;;;;;;22.63;14.48;;;6.40;99.90;;;;;;5072781;28;20032;-69
2020/12/02 06:42:37;;;;;;;21.52;13.45;;;6.50;99.90;;;;;;5070562;28;20025;-69
2020/12/02 06:45:12;;;;;;;21.98;12.82;;;6.40;99.90;;;;;;5074780;28;20025;-69
2020/12/02 06:47:50;;;;;;;23.17;13.18;;;6.40;99.90;;;;;;5075062;28;20035;-69
2020/12/02 06:50:19;;;;;;;21.30;12.95;;;6.40;99.90;;;;;;5074352;28;20535;-68
2020/12/02 06:52:45;;;;;;;23.92;13.75;;;6.40;99.90;;;;;;5074204;28;20352;-68
2020/12/02 06:55:15;;;;;;;20.98;12.48;;;6.40;99.90;;;;;;5074596;28;20024;-68
2020/12/02 06:57:42;;;;;;;26.65;13.90;;;6.50;99.90;;;;;;5074486;28;20036;-68
2020/12/02 07:00:16;;;;;;;23.73;13.98;;;6.40;99.90;;;;;;5073869;28;20032;-68
2020/12/02 07:02:55;;;;;;;23.60;13.90;;;6.40;99.90;;;;;;5074562;28;20024;-68
2020/12/02 07:05:34;;;;;;;22.88;14.00;;;6.50;99.90;;;;;;5074099;28;20088;-68
2020/12/02 07:08:08;;;;;;;29.23;14.98;;;6.40;99.90;;;;;;5073586;28;20044;-69
2020/12/02 07:10:34;;;;;;;25.02;14.45;;;6.40;99.90;;;;;;5074246;28;20048;-68
2020/12/02 07:13:00;;;;;;;23.50;13.70;;;6.40;99.90;;;;;;5074135;28;20518;-69
2020/12/02 07:15:25;;;;;;;23.98;14.13;;;6.40;99.90;;;;;;5073349;28;20422;-69
2020/12/02 07:17:51;;;;;;;26.73;15.07;;;6.40;99.90;;;;;;5074087;28;20081;-69
2020/12/02 07:20:18;;;;;;;26.70;15.27;;;6.40;99.90;;;;;;5075983;28;20021;-69
2020/12/02 07:22:49;;;;;;;25.88;14.25;;;6.40;99.90;;;;;;5083444;28;20068;-69
2020/12/02 07:25:15;;;;;;;26.48;14.48;;;6.50;99.90;;;;;;5066368;28;20016;-68
2020/12/02 07:27:43;;;;;;;24.27;13.52;;;6.40;99.90;;;;;;5090998;28;20038;-68
2020/12/02 07:30:29;;;;;;;29.20;14.23;;;6.40;99.90;;;;;;5092715;28;20020;-68
2020/12/02 07:32:55;;;;;;;27.88;15.02;;;6.50;99.90;;;;;;5086352;28;20033;-67
2020/12/02 07:35:23;;;;;;;27.13;14.77;;;6.50;99.90;;;;;;5091197;28;20020;-69
2020/12/02 07:38:04;;;;;;;22.65;14.10;;;6.50;99.90;;;;;;5088819;28;20052;-69
2020/12/02 07:40:36;;;;;;;25.52;14.45;;;6.50;99.90;;;;;;5090605;28;20058;-68
2020/12/02 07:43:03;;;;;;;20.92;12.93;;;6.50;99.90;;;;;;5088459;28;20437;-68
2020/12/02 07:45:33;;;;;;;31.38;15.32;;;6.50;99.90;;;;;;5091271;28;20059;-68
2020/12/02 07:48:05;;;;;;;22.55;13.73;;;6.50;99.90;;;;;;5087369;28;20676;-69
2020/12/02 07:50:43;;;;;;;25.45;14.57;;;6.50;99.90;;;;;;5069379;28;20036;-69
2020/12/02 07:53:39;;;;;;;27.65;14.55;;;6.60;99.90;;;;;;5074151;28;20035;-68
2020/12/02 07:56:11;;;;;;;23.55;13.00;;;6.50;99.90;;;;;;5073224;28;20020;-67
2020/12/02 07:58:40;;;;;;;25.55;15.13;;;6.60;99.90;;;;;;5073905;28;20020;-68
2020/12/02 08:01:31;;;;;;;24.38;14.75;;;6.60;99.90;;;;;;5074068;28;20024;-68
2020/12/02 08:04:10;;;;;;;24.17;14.68;;;6.50;99.90;;;;;;5073221;28;20448;-69
2020/12/02 08:06:56;;;;;;;25.67;13.82;;;6.50;99.90;;;;;;5073504;28;20032;-68
2020/12/02 08:09:22;;;;;;;23.95;13.88;;;6.50;99.90;;;;;;5078326;28;20016;-67
2020/12/02 08:11:58;;;;;;;26.23;13.85;;;6.50;99.90;;;;;;5072439;28;20130;-67
2020/12/02 08:14:36;;;;;;;23.48;14.48;;;6.50;99.90;;;;;;5072950;28;20480;-68
2020/12/02 08:17:14;;;;;;;25.65;14.63;;;6.50;99.90;;;;;;5073051;28;20054;-68
2020/12/02 08:19:42;;;;;;;25.15;14.80;;;6.60;99.90;;;;;;5090317;28;20108;-67
2020/12/02 08:22:32;;;;;;;26.20;14.02;;;6.60;99.90;;;;;;5075366;28;20035;-67
2020/12/02 08:25:14;;;;;;;23.63;14.32;;;6.60;99.90;;;;;;5083275;28;20028;-67
2020/12/02 08:27:44;;;;;;;25.92;14.25;;;6.60;99.90;;;;;;5069671;28;20066;-67
2020/12/02 08:30:16;;;;;;;26.23;15.23;;;6.60;99.90;;;;;;5093426;28;20020;-67
2020/12/02 08:32:50;;;;;;;30.00;14.80;;;6.60;99.90;;;;;;5092914;28;20044;-69
2020/12/02 08:35:25;;;;;;;25.35;14.93;;;6.60;99.90;;;;;;5092340;28;20028;-68
2020/12/02 08:37:52;;;;;;;25.35;14.27;;;6.60;99.90;;;;;;5089081;28;20048;-66
2020/12/02 08:40:28;;;;;;;30.45;15.70;;;6.70;99.90;;;;;;5090232;28;20024;-68
2020/12/02 08:42:54;;;;;;;27.42;14.93;;;6.60;99.90;;;;;;5075770;28;20041;-67
2020/12/02 08:45:23;;;;;;;26.25;14.82;;;6.70;99.90;;;;;;5071802;28;20491;-67
2020/12/02 08:47:53;;;;;;;28.77;14.30;;;6.70;99.90;;;;;;5072942;28;20078;-67
2020/12/02 08:50:25;;;;;;;30.52;15.07;;;6.80;99.90;;;;;;5072270;28;20029;-68
2020/12/02 08:52:53;;;;;;;29.92;16.65;;;6.80;99.90;;;;;;5072025;28;20047;-67
2020/12/02 08:55:19;;;;;;;32.42;15.98;;;6.80;99.90;;;;;;5072352;28;20469;-67
2020/12/02 08:57:44;;;;;;;30.45;15.82;;;6.80;99.90;;;;;;5072788;28;20024;-67
2020/12/02 09:00:22;;;;;;;29.42;16.27;;;6.80;99.90;;;;;;5072043;28;20028;-69
2020/12/02 09:02:48;;;;;;;32.72;16.60;;;6.80;99.90;;;;;;5062456;28;20425;-67
2020/12/02 09:05:14;;;;;;;29.38;15.60;;;6.80;99.90;;;;;;5072507;28;20016;-68
2020/12/02 09:07:40;;;;;;;29.15;16.05;;;6.90;99.90;;;;;;5071742;28;20069;-69
2020/12/02 09:10:06;;;;;;;33.65;16.52;;;6.90;99.90;;;;;;5072893;28;20065;-68
2020/12/02 09:12:32;;;;;;;34.90;16.92;;;6.90;99.90;;;;;;5071950;28;20051;-68
2020/12/02 09:14:57;;;;;;;36.10;16.60;;;6.90;99.90;;;;;;5071499;28;20021;-68
2020/12/02 09:17:23;;;;;;;31.90;16.33;;;6.90;99.90;;;;;;5071633;28;20829;-68
2020/12/02 09:19:50;;;;;;;34.08;16.67;;;6.90;99.90;;;;;;5072494;28;20024;-69
2020/12/02 09:22:16;;;;;;;28.55;15.90;;;6.90;99.90;;;;;;5071431;28;20035;-68
2020/12/02 09:24:43;;;;;;;33.58;17.70;;;6.90;99.90;;;;;;5085888;28;20107;-68
2020/12/02 09:27:10;;;;;;;35.55;17.65;;;6.90;99.90;;;;;;5077529;28;20024;-69
2020/12/02 09:29:36;;;;;;;31.13;16.67;;;6.90;99.90;;;;;;5084076;28;20496;-68
2020/12/02 09:32:01;;;;;;;35.55;17.40;;;7.00;99.90;;;;;;5087928;28;20128;-68
2020/12/02 09:34:27;;;;;;;35.45;16.67;;;6.90;99.90;;;;;;5090466;28;20039;-68
2020/12/02 09:36:52;;;;;;;32.88;17.05;;;6.90;99.90;;;;;;5088195;28;20041;-68
2020/12/02 09:39:18;;;;;;;34.85;16.90;;;6.90;99.90;;;;;;5090399;28;20012;-68
2020/12/02 09:42:07;;;;;;;36.67;17.70;;;6.90;99.90;;;;;;5089054;28;20032;-68
2020/12/02 09:44:41;;;;;;;32.97;18.23;;;7.00;99.90;;;;;;5091140;28;20034;-68
2020/12/02 09:47:16;;;;;;;34.35;16.77;;;7.00;99.90;;;;;;5088361;28;20017;-68
2020/12/02 09:49:45;;;;;;;39.00;17.40;;;7.00;99.90;;;;;;5088265;28;20464;-69
2020/12/02 09:52:13;;;;;;;33.22;17.15;;;7.00;99.90;;;;;;5085973;28;20037;-68
2020/12/02 09:54:44;;;;;;;34.15;16.10;;;7.00;99.90;;;;;;5071544;28;20025;-68
2020/12/02 09:57:13;;;;;;;;;;;7.00;99.90;;;;;;5071843;28;20028;-68
2020/12/02 09:59:38;;;;;;;34.00;16.17;;;7.00;99.90;;;;;;5073223;28;19904;-68
2020/12/02 10:02:37;;;;;;;35.28;16.58;;;7.00;99.90;;;;;;5089303;28;20107;-69
2020/12/02 10:05:30;;;;;;;32.20;16.38;;;7.00;99.90;;;;;;5062941;28;20029;-67
2020/12/02 10:08:16;;;;;;;30.33;16.80;;;7.00;99.90;;;;;;5077613;28;20021;-68
2020/12/02 10:11:11;;;;;;;33.95;16.85;;;7.00;99.90;;;;;;5085615;28;20063;-68
2020/12/02 10:13:55;;;;;;;30.77;16.15;;;7.00;99.90;;;;;;5087495;28;20072;-68
2020/12/02 10:16:58;;;;;;;28.58;14.98;;;7.00;99.90;;;;;;5086470;28;20046;-68
2020/12/02 10:19:52;;;;;;;29.02;16.27;;;7.10;99.90;;;;;;5087481;28;20060;-68
2020/12/02 10:23:00;;;;;;;28.40;15.75;;;7.10;99.90;;;;;;5063480;28;20016;-68
2020/12/02 10:25:41;;;;;;;32.60;17.73;;;7.10;99.90;;;;;;5080258;28;20029;-68
2020/12/02 10:28:17;;;;;;;28.23;17.20;;;7.10;99.90;;;;;;5082969;28;20464;-67
2020/12/02 10:31:06;;;;;;;29.33;15.63;;;7.10;99.90;;;;;;5091038;28;20396;-68
2020/12/02 10:33:53;;;;;;;24.50;14.88;;;7.20;99.90;;;;;;5091155;28;20024;-68
2020/12/02 10:36:23;;;;;;;31.27;15.38;;;7.10;99.90;;;;;;5091133;28;20016;-68
2020/12/02 10:38:53;;;;;;;28.45;15.25;;;7.20;99.90;;;;;;5088886;28;20024;-67
2020/12/02 10:41:46;;;;;;;34.28;15.13;;;7.10;99.90;;;;;;5070995;28;20474;-67
2020/12/02 10:44:43;;;;;;;26.08;14.77;;;7.20;99.90;;;;;;5069747;28;20107;-68
2020/12/02 10:47:50;;;;;;;28.40;15.02;;;7.10;99.90;;;;;;5071163;28;20077;-67
2020/12/02 10:50:19;;;;;;;25.48;14.50;;;7.20;99.90;;;;;;5012176;28;20030;-68
2020/12/02 10:52:50;;;;;;;26.75;15.48;;;7.20;99.90;;;;;;5069499;28;20048;-68
2020/12/02 10:55:18;;;;;;;25.27;14.85;;;7.20;99.90;;;;;;5082171;28;20035;-67
2020/12/02 10:57:53;;;;;;;26.35;14.85;;;7.20;99.90;;;;;;5091073;28;20054;-68
2020/12/02 11:00:19;;;;;;;24.05;13.70;;;7.20;99.90;;;;;;5090458;28;20038;-68
2020/12/02 11:02:44;;;;;;;26.33;14.57;;;7.20;99.90;;;;;;5091075;28;20020;-68
2020/12/02 11:05:10;;;;;;;24.27;14.82;;;7.20;99.90;;;;;;5091505;28;20047;-68
2020/12/02 11:08:10;;;;;;;23.85;14.13;;;7.20;99.90;;;;;;5090039;28;20027;-68
2020/12/02 11:11:08;;;;;;;21.58;13.10;;;7.20;99.90;;;;;;5080158;28;20040;-68
2020/12/02 11:13:58;;;;;;;23.70;14.02;;;7.20;99.90;;;;;;5055951;28;20066;-68
2020/12/02 11:17:02;;;;;;;20.58;12.93;;;7.30;99.90;;;;;;5087368;28;20037;-68
2020/12/02 11:19:37;;;;;;;24.70;14.40;;;7.30;99.90;;;;;;5071779;28;20435;-68
2020/12/02 11:22:13;;;;;;;25.73;14.85;;;7.20;99.90;;;;;;5068740;28;20016;-68
2020/12/02 11:24:44;;;;;;;20.48;13.70;;;7.30;99.90;;;;;;5076315;28;20023;-68
2020/12/02 11:27:10;;;;;;;26.13;14.88;;;7.30;99.90;;;;;;5073074;28;20066;-68
2020/12/02 11:29:36;;;;;;;26.25;15.43;;;7.30;99.90;;;;;;5075763;28;20021;-68
2020/12/02 11:32:25;;;;;;;21.50;13.70;;;7.30;99.90;;;;;;5091619;28;20495;-68
2020/12/02 11:35:14;;;;;;;22.17;14.63;;;7.30;99.90;;;;;;5083199;28;20078;-68
2020/12/02 11:38:09;;;;;;;22.65;13.23;;;7.30;99.90;;;;;;5067487;28;20024;-67
2020/12/02 11:40:51;;;;;;;26.23;15.30;;;7.30;99.90;;;;;;5089937;28;20028;-67
2020/12/02 11:43:42;;;;;;;27.77;14.25;;;7.30;99.90;;;;;;5087268;28;20023;-68
2020/12/02 11:46:13;;;;;;;25.98;14.60;;;7.30;99.90;;;;;;5070156;28;20031;-67
2020/12/02 11:49:01;;;;;;;26.95;14.55;;;7.30;99.90;;;;;;5079836;28;20024;-68
2020/12/02 11:51:32;;;;;;;26.67;15.82;;;7.30;99.90;;;;;;5062088;28;20112;-68
2020/12/02 11:54:04;;;;;;;35.03;16.42;;;7.30;99.90;;;;;;5074065;28;20028;-67
2020/12/02 11:56:43;;;;;;;32.28;16.73;;;7.30;99.90;;;;;;5073189;28;20024;-67
2020/12/02 11:59:21;;;;;;;28.38;15.90;;;7.30;99.90;;;;;;5085315;28;20020;-67
2020/12/02 12:01:55;;;;;;;35.88;17.02;;;7.30;99.90;;;;;;5083908;28;20024;-69
2020/12/02 12:04:33;;;;;;;34.22;17.98;;;7.40;99.90;;;;;;5092557;28;20024;-66
2020/12/02 12:07:12;;;;;;;30.33;16.95;;;7.30;99.90;;;;;;5075776;28;20043;-67
2020/12/02 12:09:42;;;;;;;33.70;16.23;;;7.30;99.90;;;;;;5082970;28;20036;-67
2020/12/02 12:12:22;;;;;;;33.85;15.68;;;7.30;99.90;;;;;;5092772;28;20052;-66
2020/12/02 12:15:10;;;;;;;32.17;16.80;;;7.30;99.90;;;;;;5075367;28;20020;-67
2020/12/02 12:17:42;;;;;;;36.30;17.20;;;7.30;99.90;;;;;;5066647;28;20104;-68
2020/12/02 12:20:34;;;;;;;33.15;17.58;;;7.30;99.90;;;;;;5078725;28;20488;-68
2020/12/02 12:23:30;;;;;;;32.25;16.25;;;7.30;99.90;;;;;;5072759;28;20023;-68
2020/12/02 12:25:57;;;;;;;34.30;17.50;;;7.30;99.90;;;;;;5065851;28;20029;-68
2020/12/02 12:28:30;;;;;;;39.47;19.67;;;7.30;99.90;;;;;;5087445;28;20063;-68
2020/12/02 12:31:03;;;;;;;34.55;18.35;;;7.30;99.90;;;;;;5075506;28;20549;-68
2020/12/02 12:33:39;;;;;;;35.65;18.02;;;7.30;99.90;;;;;;5073026;28;20527;-68
2020/12/02 12:36:20;;;;;;;35.28;16.52;;;7.30;99.90;;;;;;5072649;28;20031;-68
2020/12/02 12:39:17;;;;;;;34.83;17.92;;;7.30;99.90;;;;;;5072493;28;20504;-68
2020/12/02 12:41:48;;;;;;;36.42;17.80;;;7.30;99.90;;;;;;5072249;28;20464;-68
2020/12/02 12:44:31;;;;;;;31.42;16.67;;;7.30;99.90;;;;;;5073154;28;20020;-68
2020/12/02 12:47:08;;;;;;;30.55;16.13;;;7.30;99.90;;;;;;5080859;28;20070;-68
2020/12/02 12:49:34;;;;;;;35.30;17.25;;;7.30;99.90;;;;;;5087214;28;20115;-68
2020/12/02 12:52:01;;;;;;;35.58;18.38;;;7.30;99.90;;;;;;5087793;28;20161;-68
2020/12/02 12:54:28;;;;;;;33.97;17.52;;;7.30;99.90;;;;;;5087666;28;20031;-67
2020/12/02 12:56:56;;;;;;;32.28;16.98;;;7.30;99.90;;;;;;5086500;28;20028;-68
2020/12/02 12:59:25;;;;;;;31.27;17.08;;;7.30;99.90;;;;;;5084205;28;20016;-71
2020/12/02 13:01:54;;;;;;;32.17;16.63;;;7.30;99.90;;;;;;5071527;28;20102;-69
2020/12/02 13:04:22;;;;;;;34.22;17.77;;;7.30;99.90;;;;;;5080617;28;20048;-68
2020/12/02 13:07:11;;;;;;;32.15;16.98;;;7.40;99.90;;;;;;5088957;28;20032;-69